Jackson, MS (39217)

6:45 AM CDT on July 28, 2016 (GMT -0500)
Belhaven | | Change Station

Elev 318 ft 32.32 °N, 90.16 °W | Updated 13 seconds ago

Overcast
Overcast
73.9 °F
Feels Like 70 °F
N
0.2
Wind Variable Wind from South
Gusts 2.5 mph

Today
High -- | Low -- °F
--% Chance of Precip.
Yesterday
High -- | Low -- °F
Precip. -- in
Pressure 30.01 in
Visibility 10.0 miles
Clouds Mostly Cloudy 5000 ft
Overcast 9000 ft
Heat Index 70 °F
Dew Point 73 °F
Humidity 97%
Rainfall 0.00 in
Snow Depth Not available.
6:13 AM 8:00 PM
Waning Crescent, 33% visible
SPECI KHKS 281129Z 21006KT 10SM VCTS BKN050 OVC090 23/21 A3001 RMK AO2 LTG DSNT NW-NE T02330211 $
Pressure 30.01 in
Visibility 10.0 miles
Clouds Mostly Cloudy 5000 ft
Overcast 9000 ft
Heat Index 70 °F
Dew Point 73 °F
Humidity 97%
Rainfall 0.00 in
Snow Depth Not available.
6:13 AM 8:00 PM
Waning Crescent, 33% visible
SPECI KHKS 281129Z 21006KT 10SM VCTS BKN050 OVC090 23/21 A3001 RMK AO2 LTG DSNT NW-NE T02330211 $

10-Day Weather Forecast

Almanac

Astronomy

Jul. 28, 2016 Rise Set
Actual Time
Civil Twilight
Nautical Twilight
Astronomical Twilight
Moon
Length of Visible Light
Length of Day
Tomorrow will be .
, % of the Moon is Illuminated

Today's Extremes

State Highs State Lows

Community

WunderPhotos

Upload Photos

1,928,096 photos uploaded!

WunderBlog® & News

Nearby

Air Quality

  Air Quality AQ Index Pollutant
Not available.

Snow Depth

Station Depth Elevation

Earthquake Activity

City Distance Mag. Time & Date
Minimum magnitude displayed is 2.5.

Coastal Water Temperatures

Place Temperature

Stations

Nearby Weather Stations

Station Location Temp. Windchill Dew Point Humidity Wind Precip. Elev Updated Type
                   

Watches & Warnings

There are currently no watches in effect.